Time;durP1;ratioP1;P1;durP2;ratioP2;P2;SDS_P1;SDS_P2;PMS_P1;PMS_P2;Temp;Humidity;BMP_temperature;BMP_pressure;BME280_temperature;BME280_humidity;BME280_pressure;Samples;Min_cycle;Max_cycle;Signal;HPM_P1;HPM_P2
2024/02/02 00:01:17;;;;;;;;;;;;;;;3.80;54.71;99253.78;5055158;28;19978;-77
2024/02/02 00:03:43;;;;;;;;;;;;;;;3.95;54.34;99266.44;5073120;28;19967;-78
2024/02/02 00:06:08;;;;;;;;;;;;;;;3.89;55.17;99276.13;5055131;28;20424;-77
2024/02/02 00:08:33;;;;;;;;;;;;;;;3.81;55.01;99268.25;5055127;28;20389;-78
2024/02/02 00:10:59;;;;;;;;;;;;;;;3.87;55.25;99258.53;5055277;28;19913;-77
2024/02/02 00:13:24;;;;;;;;;;;;;;;3.85;55.80;99253.47;5055176;28;19921;-78
2024/02/02 00:15:52;;;;;;;;;;;;;;;3.66;57.65;99253.69;5072882;28;19924;-77
2024/02/02 00:18:17;;;;;;;;;;;;;;;3.61;60.46;99245.84;5054777;28;19921;-77
2024/02/02 00:20:43;;;;;;;;;;;;;;;3.83;61.14;99242.13;5073139;28;19927;-80
2024/02/02 00:23:08;;;;;;;;;;;;;;;4.04;60.99;99245.00;5055048;28;20386;-80
2024/02/02 00:25:33;;;;;;;;;;;;;;;4.27;60.16;99241.28;5069364;28;20018;-79
2024/02/02 00:27:59;;;;;;;;;;;;;;;4.34;60.45;99255.00;5063279;28;20390;-78
2024/02/02 00:30:24;;;;;;;;;;;;;;;4.37;60.25;99251.50;5072335;28;20345;-79
2024/02/02 00:32:49;;;;;;;;;;;;;;;4.36;61.26;99241.72;5054902;28;19932;-79
2024/02/02 00:35:15;;;;;;;;;;;;;;;4.38;60.10;99253.06;5054786;28;19946;-79
2024/02/02 00:37:40;;;;;;;;;;;;;;;4.54;57.90;99263.69;5054781;28;19917;-77
2024/02/02 00:40:06;;;;;;;;;;;;;;;4.64;56.63;99255.53;5072728;28;19917;-79
2024/02/02 00:42:32;;;;;;;;;;;;;;;4.71;55.51;99254.78;5072571;28;19920;-78
2024/02/02 00:44:57;;;;;;;;;;;;;;;4.89;54.54;99256.44;5054436;28;19923;-77
2024/02/02 00:47:23;;;;;;;;;;;;;;;4.99;54.50;99249.47;5054347;28;19920;-78
2024/02/02 00:49:48;;;;;;;;;;;;;;;4.97;54.58;99261.97;5072247;28;19924;-78
2024/02/02 00:52:13;;;;;;;;;;;;;;;5.10;53.91;99263.19;5053700;28;19920;-80
2024/02/02 00:54:39;;;;;;;;;;;;;;;5.16;53.97;99265.19;5054061;28;19917;-80
2024/02/02 00:57:04;;;;;;;;;;;;;;;5.21;53.53;99258.53;5072456;28;20380;-78
2024/02/02 00:59:29;;;;;;;;;;;;;;;5.12;53.79;99258.13;5053872;28;20465;-77
2024/02/02 01:01:55;;;;;;;;;;;;;;;4.95;54.31;99253.34;5072028;28;19977;-79
2024/02/02 01:04:20;;;;;;;;;;;;;;;4.95;54.51;99247.88;5054429;28;19921;-77
2024/02/02 01:06:46;;;;;;;;;;;;;;;4.92;55.13;99243.97;5054187;28;19919;-77
2024/02/02 01:09:11;;;;;;;;;;;;;;;5.02;54.62;99248.69;5054011;28;19970;-80
2024/02/02 01:11:36;;;;;;;;;;;;;;;4.86;54.79;99251.75;5054359;28;19920;-79
2024/02/02 01:14:02;;;;;;;;;;;;;;;4.69;55.50;99238.00;5053827;28;19924;-78
2024/02/02 01:16:27;;;;;;;;;;;;;;;4.57;56.11;99241.84;5053870;28;19917;-77
2024/02/02 01:18:52;;;;;;;;;;;;;;;4.43;56.20;99247.22;5054061;28;20378;-78
2024/02/02 01:21:18;;;;;;;;;;;;;;;3.99;58.28;99242.63;5053949;28;20460;-78
2024/02/02 01:23:43;;;;;;;;;;;;;;;3.94;58.93;99245.72;5053807;28;19920;-81
2024/02/02 01:26:08;;;;;;;;;;;;;;;3.78;59.87;99237.00;5072079;28;19919;-78
2024/02/02 01:28:34;;;;;;;;;;;;;;;3.73;61.20;99234.63;5071749;28;19916;-79
2024/02/02 01:30:59;;;;;;;;;;;;;;;3.77;61.05;99240.91;5053785;28;19916;-78
2024/02/02 01:33:24;;;;;;;;;;;;;;;3.78;61.88;99228.81;5071501;28;19920;-79
2024/02/02 01:35:50;;;;;;;;;;;;;;;3.78;62.07;99231.53;5071439;28;19989;-78
2024/02/02 01:38:15;;;;;;;;;;;;;;;3.82;62.35;99226.88;5054125;28;19916;-78
2024/02/02 01:40:41;;;;;;;;;;;;;;;3.83;62.58;99225.72;5053641;28;19938;-78
2024/02/02 01:43:06;;;;;;;;;;;;;;;3.72;64.65;99215.88;5056849;28;19923;-77
2024/02/02 01:45:31;;;;;;;;;;;;;;;4.18;63.34;99216.19;5057872;28;19924;-77
2024/02/02 01:47:57;;;;;;;;;;;;;;;4.38;62.58;99210.09;5053623;28;19978;-77
2024/02/02 01:50:22;;;;;;;;;;;;;;;4.63;60.51;99223.91;5053893;28;19920;-78
2024/02/02 01:52:47;;;;;;;;;;;;;;;4.84;59.14;99231.41;5053604;28;19920;-77
2024/02/02 01:55:13;;;;;;;;;;;;;;;4.86;59.34;99223.59;5053333;28;20136;-78
2024/02/02 01:57:38;;;;;;;;;;;;;;;4.85;58.93;99233.75;5053493;28;20011;-79
2024/02/02 02:00:04;;;;;;;;;;;;;;;4.82;59.24;99229.03;5053301;28;19954;-79
2024/02/02 02:02:29;;;;;;;;;;;;;;;4.81;60.10;99237.66;5053004;28;19940;-79
2024/02/02 02:04:55;;;;;;;;;;;;;;;4.77;59.66;99245.84;5075374;28;19916;-78
2024/02/02 02:07:20;;;;;;;;;;;;;;;4.72;60.45;99238.00;5075614;28;19920;-79
2024/02/02 02:09:45;;;;;;;;;;;;;;;4.95;58.86;99236.91;5057436;28;19990;-80
2024/02/02 02:12:11;;;;;;;;;;;;;;;5.13;58.27;99238.53;5075098;28;19916;-79
2024/02/02 02:14:36;;;;;;;;;;;;;;;5.17;57.18;99241.31;5075349;28;20408;-78
2024/02/02 02:17:02;;;;;;;;;;;;;;;5.24;56.77;99236.63;5056780;28;19963;-78
2024/02/02 02:19:28;;;;;;;;;;;;;;;5.31;56.31;99244.06;5057060;28;19920;-79
2024/02/02 02:21:53;;;;;;;;;;;;;;;5.43;55.14;99246.44;5056814;28;19916;-77
2024/02/02 02:24:18;;;;;;;;;;;;;;;5.80;53.85;99248.84;5074618;28;19940;-78
2024/02/02 02:26:44;;;;;;;;;;;;;;;5.95;52.97;99233.22;5056348;28;20358;-79
2024/02/02 02:29:10;;;;;;;;;;;;;;;6.12;52.61;99241.44;5056717;28;19965;-79
2024/02/02 02:31:35;;;;;;;;;;;;;;;6.09;53.19;99244.94;5074476;28;19919;-80
2024/02/02 02:34:01;;;;;;;;;;;;;;;5.89;54.50;99243.00;5043768;28;20491;-78
2024/02/02 02:36:26;;;;;;;;;;;;;;;5.73;55.20;99237.88;5061405;28;19925;-77
2024/02/02 02:38:52;;;;;;;;;;;;;;;5.57;55.77;99241.00;5074356;28;19978;-78
2024/02/02 02:41:17;;;;;;;;;;;;;;;5.49;56.89;99228.44;5074365;28;20340;-79
2024/02/02 02:43:42;;;;;;;;;;;;;;;5.36;57.09;99230.00;5056337;28;19923;-77
2024/02/02 02:46:07;;;;;;;;;;;;;;;5.29;58.05;99224.50;5074356;28;20382;-77
2024/02/02 02:48:33;;;;;;;;;;;;;;;5.29;57.28;99224.50;5056806;28;19936;-78
2024/02/02 02:50:59;;;;;;;;;;;;;;;5.31;57.70;99233.09;5056866;28;19916;-79
2024/02/02 02:53:24;;;;;;;;;;;;;;;5.35;58.25;99225.69;5056374;28;19955;-77
2024/02/02 02:55:49;;;;;;;;;;;;;;;5.34;58.15;99232.34;5056549;28;19917;-79
2024/02/02 02:58:15;;;;;;;;;;;;;;;5.48;56.70;99242.56;5056396;28;19916;-80
2024/02/02 03:00:40;;;;;;;;;;;;;;;5.54;56.22;99230.03;5056656;28;20420;-78
2024/02/02 03:03:05;;;;;;;;;;;;;;;5.59;56.51;99221.44;5056215;28;19936;-77
2024/02/02 03:05:31;;;;;;;;;;;;;;;5.68;55.42;99225.34;5043819;28;19921;-78
2024/02/02 03:07:56;;;;;;;;;;;;;;;5.82;55.35;99232.00;5049663;28;20055;-77
2024/02/02 03:10:25;;;;;;;;;;;;;;;5.92;53.96;99229.28;5049481;28;19927;-79
2024/02/02 03:12:50;;;;;;;;;;;;;;;5.97;53.80;99228.09;5074169;28;19924;-79
2024/02/02 03:15:16;;;;;;;;;;;;;;;5.98;54.04;99226.94;5055414;28;19916;-80
2024/02/02 03:17:41;;;;;;;;;;;;;;;5.99;53.84;99234.00;5056157;28;19924;-78
2024/02/02 03:20:11;;;;;;;;;;;;;;;5.96;54.10;99235.56;5056112;28;19916;-79
2024/02/02 03:22:36;;;;;;;;;;;;;;;5.92;54.69;99234.78;5056256;28;19916;-78
2024/02/02 03:25:01;;;;;;;;;;;;;;;5.84;56.03;99237.91;5055809;28;19921;-78
2024/02/02 03:27:27;;;;;;;;;;;;;;;5.75;56.23;99241.00;5072415;28;19921;-77
2024/02/02 03:29:53;;;;;;;;;;;;;;;5.72;56.53;99237.13;5055828;28;19997;-77
2024/02/02 03:32:18;;;;;;;;;;;;;;;5.79;56.27;99236.31;5055855;28;20393;-79
2024/02/02 03:34:44;;;;;;;;;;;;;;;5.67;56.54;99221.03;5055885;28;19920;-79
2024/02/02 03:37:09;;;;;;;;;;;;;;;5.84;56.46;99243.38;5042462;28;20318;-77
2024/02/02 03:39:34;;;;;;;;;;;;;;;5.72;57.38;99237.13;5055589;28;20393;-78
2024/02/02 03:41:59;;;;;;;;;;;;;;;5.65;58.46;99242.59;5073288;28;20406;-77
2024/02/02 03:44:25;;;;;;;;;;;;;;;5.64;58.54;99248.44;5055421;28;20382;-79
2024/02/02 03:46:50;;;;;;;;;;;;;;;5.73;58.95;99243.34;5055462;28;19916;-78
2024/02/02 03:49:16;;;;;;;;;;;;;;;5.80;58.39;99251.59;5073790;28;19924;-79
2024/02/02 03:51:41;;;;;;;;;;;;;;;5.82;58.07;99262.16;5073414;28;19961;-78
2024/02/02 03:54:06;;;;;;;;;;;;;;;5.74;58.63;99251.19;5073421;28;20027;-78
2024/02/02 03:56:32;;;;;;;;;;;;;;;5.65;59.63;99264.50;5055194;28;19927;-79
2024/02/02 03:58:57;;;;;;;;;;;;;;;5.69;60.36;99262.56;5073026;28;19955;-78
2024/02/02 04:01:22;;;;;;;;;;;;;;;5.87;60.46;99261.78;5055014;28;19927;-79
2024/02/02 04:03:48;;;;;;;;;;;;;;;5.95;59.19;99266.13;5055628;28;19921;-77
2024/02/02 04:06:13;;;;;;;;;;;;;;;5.94;59.86;99259.06;5055298;28;19920;-79
2024/02/02 04:08:38;;;;;;;;;;;;;;;5.91;58.99;99268.84;5055398;28;19916;-79
2024/02/02 04:11:04;;;;;;;;;;;;;;;6.05;59.18;99265.34;5054639;28;19970;-79
2024/02/02 04:13:29;;;;;;;;;;;;;;;6.11;59.64;99275.53;5073097;28;19916;-79
2024/02/02 04:15:54;;;;;;;;;;;;;;;6.28;59.55;99262.19;5054780;28;19923;-78
2024/02/02 04:18:20;;;;;;;;;;;;;;;6.39;58.99;99268.47;5072963;28;20417;-80
2024/02/02 04:20:45;;;;;;;;;;;;;;;6.41;58.00;99266.88;5072814;28;19917;-80
2024/02/02 04:23:10;;;;;;;;;;;;;;;6.39;59.07;99246.50;5072957;28;19917;-79
2024/02/02 04:25:35;;;;;;;;;;;;;;;6.40;59.46;99264.50;5053594;28;20754;-78
2024/02/02 04:28:02;;;;;;;;;;;;;;;6.55;58.12;99266.06;5054941;28;19936;-78
2024/02/02 04:30:30;;;;;;;;;;;;;;;6.62;58.24;99259.78;5054704;28;20420;-77
2024/02/02 04:32:55;;;;;;;;;;;;;;;6.62;60.67;99246.84;5072888;28;19976;-77
2024/02/02 04:35:21;;;;;;;;;;;;;;;6.69;61.39;99255.03;5054504;28;19921;-78
2024/02/02 04:37:46;;;;;;;;;;;;;;;6.83;61.60;99262.47;5055037;28;20458;-77
2024/02/02 04:40:11;;;;;;;;;;;;;;;6.81;62.17;99251.09;5054437;28;20377;-80
2024/02/02 04:42:37;;;;;;;;;;;;;;;6.86;64.22;99247.94;5072515;28;20014;-79
2024/02/02 04:45:02;;;;;;;;;;;;;;;6.97;62.48;99256.91;5054741;28;19916;-80
2024/02/02 04:47:28;;;;;;;;;;;;;;;7.02;62.20;99255.72;5072466;28;19917;-78
2024/02/02 04:49:53;;;;;;;;;;;;;;;7.06;61.82;99246.28;5054359;28;19912;-77
2024/02/02 04:52:18;;;;;;;;;;;;;;;7.09;63.04;99252.94;5054378;28;20612;-77
2024/02/02 04:54:43;;;;;;;;;;;;;;;7.27;63.40;99257.19;5054219;28;19920;-77
2024/02/02 04:57:09;;;;;;;;;;;;;;;7.40;62.50;99275.97;5071845;28;20386;-77
2024/02/02 04:59:34;;;;;;;;;;;;;;;7.44;62.66;99282.22;5071961;28;19920;-77
2024/02/02 05:02:00;;;;;;;;;;;;;;;7.43;61.66;99280.66;5071984;28;19928;-77
2024/02/02 05:04:25;;;;;;;;;;;;;;;7.39;61.52;99285.38;5071569;28;20382;-77
2024/02/02 05:06:50;;;;;;;;;;;;;;;7.38;60.59;99279.09;5054094;28;19970;-78
2024/02/02 05:09:16;;;;;;;;;;;;;;;7.33;60.13;99285.03;5071799;28;20000;-79
2024/02/02 05:11:41;;;;;;;;;;;;;;;7.38;60.13;99292.06;5054474;28;19966;-77
2024/02/02 05:14:06;;;;;;;;;;;;;;;7.33;60.62;99296.81;5071678;28;19912;-78
2024/02/02 05:16:32;;;;;;;;;;;;;;;7.27;60.46;99300.38;5053869;28;20375;-77
2024/02/02 05:18:57;;;;;;;;;;;;;;;7.21;60.83;99308.25;5071943;28;20374;-78
2024/02/02 05:21:22;;;;;;;;;;;;;;;7.19;61.27;99309.81;5053973;28;19913;-77
2024/02/02 05:23:48;;;;;;;;;;;;;;;7.22;60.72;99312.56;5053891;28;19919;-77
2024/02/02 05:26:13;;;;;;;;;;;;;;;7.26;61.23;99315.28;5071654;28;19917;-77
2024/02/02 05:28:40;;;;;;;;;;;;;;;7.25;61.01;99306.25;5053596;28;19912;-77
2024/02/02 05:31:06;;;;;;;;;;;;;;;7.29;60.52;99318.00;5053844;28;19923;-78
2024/02/02 05:33:31;;;;;;;;;;;;;;;7.27;60.75;99320.38;5053893;28;19946;-80
2024/02/02 05:35:57;;;;;;;;;;;;;;;7.24;61.23;99309.41;5044068;28;19966;-77
2024/02/02 05:38:22;;;;;;;;;;;;;;;7.27;60.18;99309.41;5050105;28;20007;-77
2024/02/02 05:40:48;;;;;;;;;;;;;;;7.22;60.37;99320.81;5053586;28;20039;-77
2024/02/02 05:43:14;;;;;;;;;;;;;;;7.22;60.44;99318.06;5053180;28;19920;-79
2024/02/02 05:45:39;;;;;;;;;;;;;;;7.18;62.28;99322.75;5053779;28;20312;-79
2024/02/02 05:48:05;;;;;;;;;;;;;;;7.10;62.85;99325.94;5053687;28;19916;-77
2024/02/02 05:50:30;;;;;;;;;;;;;;;7.06;62.98;99333.41;5053628;28;19917;-77
2024/02/02 05:52:55;;;;;;;;;;;;;;;7.11;62.56;99342.06;5071322;28;19981;-78
2024/02/02 05:55:20;;;;;;;;;;;;;;;7.07;62.61;99345.97;5053664;28;20416;-77
2024/02/02 05:57:46;;;;;;;;;;;;;;;7.15;62.00;99356.56;5053120;28;19917;-80
2024/02/02 06:00:11;;;;;;;;;;;;;;;7.15;61.42;99356.56;5053358;28;19920;-78
2024/02/02 06:02:37;;;;;;;;;;;;;;;7.17;61.19;99362.41;5071223;28;19928;-78
2024/02/02 06:05:02;;;;;;;;;;;;;;;7.24;61.88;99375.34;5071584;28;19924;-76
2024/02/02 06:07:28;;;;;;;;;;;;;;;7.25;61.28;99377.72;5071005;28;19975;-77
2024/02/02 06:09:53;;;;;;;;;;;;;;;7.30;61.32;99371.81;5071552;28;20309;-78
2024/02/02 06:12:18;;;;;;;;;;;;;;;7.26;60.99;99371.03;5052934;28;20382;-80
2024/02/02 06:14:44;;;;;;;;;;;;;;;7.27;61.08;99371.81;5071435;28;20435;-78
2024/02/02 06:17:10;;;;;;;;;;;;;;;7.18;61.97;99368.69;5071578;28;19918;-78
2024/02/02 06:19:36;;;;;;;;;;;;;;;7.25;62.18;99372.22;5053430;28;20308;-78
2024/02/02 06:22:02;;;;;;;;;;;;;;;7.30;63.09;99377.28;5047749;28;19913;-77
2024/02/02 06:24:27;;;;;;;;;;;;;;;7.36;63.00;99372.16;5045670;28;20390;-78
2024/02/02 06:26:53;;;;;;;;;;;;;;;7.47;61.67;99374.91;5071269;28;20378;-81
2024/02/02 06:29:18;;;;;;;;;;;;;;;7.49;60.95;99372.53;5053369;28;19912;-80
2024/02/02 06:31:43;;;;;;;;;;;;;;;7.48;60.71;99371.72;5071336;28;19990;-79
2024/02/02 06:34:09;;;;;;;;;;;;;;;7.48;61.91;99376.44;5071267;28;19921;-79
2024/02/02 06:36:34;;;;;;;;;;;;;;;7.43;62.94;99374.13;5053065;28;19927;-79
2024/02/02 06:38:59;;;;;;;;;;;;;;;7.45;62.88;99385.50;5063613;28;19971;-78
2024/02/02 06:41:24;;;;;;;;;;;;;;;7.39;62.45;99392.59;5047214;28;19912;-80
2024/02/02 06:43:50;;;;;;;;;;;;;;;7.33;63.60;99405.97;5070843;28;19912;-78
2024/02/02 06:46:15;;;;;;;;;;;;;;;7.38;64.06;99400.06;5052747;28;19919;-79
2024/02/02 06:48:42;;;;;;;;;;;;;;;7.31;64.39;99400.06;5053203;28;19948;-80
2024/02/02 06:51:08;;;;;;;;;;;;;;;7.33;65.34;99404.00;5043386;28;19920;-79
2024/02/02 06:53:35;;;;;;;;;;;;;;;7.30;66.24;99396.53;5055787;28;19928;-77
2024/02/02 06:56:01;;;;;;;;;;;;;;;7.33;67.00;99414.22;5056380;28;20003;-77
2024/02/02 06:58:40;;;;;;;;;;;;;;;7.35;68.43;99415.38;5081282;28;19967;-77
2024/02/02 07:01:06;;;;;;;;;;;;;;;7.29;69.56;99413.44;5073970;28;19916;-77
2024/02/02 07:03:32;;;;;;;;;;;;;;;7.28;69.62;99418.16;5055626;28;19932;-77
2024/02/02 07:05:58;;;;;;;;;;;;;;;7.29;70.57;99416.94;5048800;28;19950;-79
2024/02/02 07:08:23;;;;;;;;;;;;;;;7.26;71.14;99419.72;5056407;28;19924;-78
2024/02/02 07:10:56;;;;;;;;;;;;;;;7.23;70.76;99426.03;5056285;28;19969;-79
2024/02/02 07:13:21;;;;;;;;;;;;;;;7.25;70.97;99438.19;5074475;28;19917;-77
2024/02/02 07:15:47;;;;;;;;;;;;;;;7.29;70.24;99449.94;5089117;28;19920;-79
2024/02/02 07:18:26;;;;;;;;;;;;;;;7.28;69.71;99456.63;5076209;28;19916;-79
2024/02/02 07:20:59;;;;;;;;;;;;;;;7.31;70.15;99461.34;5056060;28;19916;-77
2024/02/02 07:23:31;;;;;;;;;;;;;;;7.36;69.30;99462.88;5042947;28;19931;-76
2024/02/02 07:25:56;;;;;;;;;;;;;;;7.34;68.88;99473.50;5055980;28;19956;-77
2024/02/02 07:28:30;;;;;;;;;;;;;;;7.34;69.24;99459.75;5056001;28;20412;-76
2024/02/02 07:30:55;;;;;;;;;;;;;;;7.33;68.49;99466.44;5056026;28;20038;-79
2024/02/02 07:33:33;;;;;;;;;;;;;;;7.33;68.28;99467.22;5056117;28;20421;-77
2024/02/02 07:35:59;;;;;;;;;;;;;;;7.33;68.65;99480.97;5056190;28;19981;-78
2024/02/02 07:38:24;;;;;;;;;;;;;;;7.30;68.73;99481.75;5074064;28;20371;-79
2024/02/02 07:40:58;;;;;;;;;;;;;;;7.34;68.83;99495.50;5055580;28;20370;-77
2024/02/02 07:43:23;;;;;;;;;;;;;;;7.26;69.01;99482.94;5072798;28;19923;-76
2024/02/02 07:45:48;;;;;;;;;;;;;;;7.28;68.77;99480.59;5071581;28;19916;-77
2024/02/02 07:48:14;;;;;;;;;;;;;;;7.32;68.48;99487.66;5071460;28;20459;-79
2024/02/02 07:50:39;;;;;;;;;;;;;;;7.26;67.98;99480.97;5071946;28;20374;-80
2024/02/02 07:53:05;;;;;;;;;;;;;;;7.26;67.94;99500.22;5053275;28;20466;-77
2024/02/02 07:55:30;;;;;;;;;;;;;;;7.34;67.36;99498.25;5061593;28;19917;-79
2024/02/02 07:57:55;;;;;;;;;;;;;;;7.28;67.37;99491.59;5080670;28;20634;-77
2024/02/02 08:00:20;;;;;;;;;;;;;;;7.29;66.69;99482.91;5072856;28;19946;-80
2024/02/02 08:02:46;;;;;;;;;;;;;;;7.31;66.89;99488.81;5069808;28;20429;-77
2024/02/02 08:05:11;;;;;;;;;;;;;;;7.35;66.50;99495.09;5061318;28;20382;-79
2024/02/02 08:07:36;;;;;;;;;;;;;;;7.36;66.36;99491.16;5072629;28;19920;-78
2024/02/02 08:10:03;;;;;;;;;;;;;;;7.39;66.18;99497.84;5072742;28;19913;-76
2024/02/02 08:12:28;;;;;;;;;;;;;;;7.43;66.47;99497.81;5072852;28;19959;-77
2024/02/02 08:14:54;;;;;;;;;;;;;;;7.43;65.33;99497.81;5072855;28;20377;-79
2024/02/02 08:17:19;;;;;;;;;;;;;;;7.42;64.81;99505.28;5054762;28;20445;-78
2024/02/02 08:19:45;;;;;;;;;;;;;;;7.46;65.03;99502.56;5072687;28;19923;-77
2024/02/02 08:22:10;;;;;;;;;;;;;;;7.51;65.49;99505.69;5054555;28;19924;-77
2024/02/02 08:24:35;;;;;;;;;;;;;;;7.52;65.44;99503.72;5072547;28;20356;-79
2024/02/02 08:27:01;;;;;;;;;;;;;;;7.55;64.90;99500.16;5070045;28;19913;-77
2024/02/02 08:29:26;;;;;;;;;;;;;;;7.58;65.07;99502.13;5061808;28;19969;-78
2024/02/02 08:31:52;;;;;;;;;;;;;;;7.61;63.92;99513.09;5072268;28;19920;-77
2024/02/02 08:34:17;;;;;;;;;;;;;;;7.65;64.00;99510.38;5072526;28;19970;-77
2024/02/02 08:36:42;;;;;;;;;;;;;;;7.77;63.74;99507.19;5053784;28;19917;-79
2024/02/02 08:39:10;;;;;;;;;;;;;;;7.90;62.88;99513.81;5054406;28;20417;-77
2024/02/02 08:41:36;;;;;;;;;;;;;;;8.00;61.89;99512.22;5072084;28;20369;-77
2024/02/02 08:44:04;;;;;;;;;;;;;;;8.12;61.49;99503.50;5072124;28;19935;-77
2024/02/02 08:46:35;;;;;;;;;;;;;;;8.05;59.27;99520.84;5069553;28;19943;-76
2024/02/02 08:49:01;;;;;;;;;;;;;;;8.13;59.07;99522.38;5044192;28;20332;-76
2024/02/02 08:51:42;;;;;;;;;;;;;;;8.25;58.20;99518.41;5053901;28;19920;-79
2024/02/02 08:54:07;;;;;;;;;;;;;;;8.34;58.00;99516.00;5072164;28;20011;-78
2024/02/02 08:56:33;;;;;;;;;;;;;;;8.46;57.80;99517.50;5071436;28;20453;-76
2024/02/02 08:58:58;;;;;;;;;;;;;;;8.58;56.79;99517.84;5071274;28;19919;-80
2024/02/02 09:01:29;;;;;;;;;;;;;;;8.69;56.80;99537.03;5053934;28;20325;-79
2024/02/02 09:03:55;;;;;;;;;;;;;;;8.81;56.49;99533.03;5054058;28;20070;-81
2024/02/02 09:06:20;;;;;;;;;;;;;;;8.83;55.92;99533.41;5071771;28;20003;-79
2024/02/02 09:08:48;;;;;;;;;;;;;;;8.89;55.57;99538.09;5071254;28;20170;-79
2024/02/02 09:11:16;;;;;;;;;;;;;;;8.96;54.85;99546.31;5041156;28;19912;-79
2024/02/02 09:13:42;;;;;;;;;;;;;;;8.87;54.89;99558.97;5053467;28;19944;-79
2024/02/02 09:16:13;;;;;;;;;;;;;;;8.67;53.87;99547.69;5053608;28;20420;-78
2024/02/02 09:18:40;;;;;;;;;;;;;;;8.57;55.32;99557.59;5052941;28;19913;-77
2024/02/02 09:21:07;;;;;;;;;;;;;;;8.46;55.34;99556.06;5052139;28;19916;-77
2024/02/02 09:23:33;;;;;;;;;;;;;;;8.35;55.87;99569.09;5051242;28;19926;-79
2024/02/02 09:26:19;;;;;;;;;;;;;;;8.18;55.83;99557.75;5041459;28;20007;-80
2024/02/02 09:28:45;;;;;;;;;;;;;;;8.16;56.24;99571.13;5069042;28;19923;-78
2024/02/02 09:31:20;;;;;;;;;;;;;;;8.10;56.99;99567.22;5053227;28;19923;-81
2024/02/02 09:33:47;;;;;;;;;;;;;;;8.09;56.75;99567.59;5071153;28;19957;-80
2024/02/02 09:36:13;;;;;;;;;;;;;;;8.03;57.01;99561.72;5071191;28;20394;-79
2024/02/02 09:38:39;;;;;;;;;;;;;;;7.96;57.24;99563.69;5071177;28;19920;-79
2024/02/02 09:41:05;;;;;;;;;;;;;;;7.95;57.36;99551.94;5071442;28;19918;-78
2024/02/02 09:43:33;;;;;;;;;;;;;;;7.96;57.70;99556.22;5053120;28;20294;-78
2024/02/02 09:46:20;;;;;;;;;;;;;;;8.04;57.34;99557.78;5053132;28;20436;-79
2024/02/02 09:48:45;;;;;;;;;;;;;;;8.10;56.71;99553.44;5065469;28;19944;-77
2024/02/02 09:51:22;;;;;;;;;;;;;;;8.13;56.38;99557.38;5053274;28;19963;-77
2024/02/02 09:54:06;;;;;;;;;;;;;;;8.32;55.80;99551.41;5071100;28;19964;-78
2024/02/02 09:56:41;;;;;;;;;;;;;;;8.52;55.04;99549.75;5053071;28;19924;-77
2024/02/02 09:59:06;;;;;;;;;;;;;;;8.81;55.06;99539.31;5046534;28;20408;-77
2024/02/02 10:01:55;;;;;;;;;;;;;;;9.04;54.20;99526.97;5047232;28;19920;-77
2024/02/02 10:04:33;;;;;;;;;;;;;;;9.73;53.64;99532.25;5071226;28;19935;-78
2024/02/02 10:06:58;;;;;;;;;;;;;;;9.93;51.13;99515.88;5053530;28;19923;-77
2024/02/02 10:09:29;;;;;;;;;;;;;;;9.98;50.27;99520.94;5053068;28;19912;-77
2024/02/02 10:11:58;;;;;;;;;;;;;;;9.95;51.22;99519.75;5053296;28;19916;-79
2024/02/02 10:14:42;;;;;;;;;;;;;;;10.10;48.46;99523.16;5053069;28;19938;-77
2024/02/02 10:17:26;;;;;;;;;;;;;;;10.01;49.61;99515.34;5053005;28;19916;-82
2024/02/02 10:20:12;;;;;;;;;;;;;;;10.05;48.89;99512.56;5071257;28;19920;-78
2024/02/02 10:22:40;;;;;;;;;;;;;;;10.02;47.59;99516.91;5020033;28;20344;-78
2024/02/02 10:25:24;;;;;;;;;;;;;;;9.97;48.46;99519.34;5055441;28;19927;-78
2024/02/02 10:27:49;;;;;;;;;;;;;;;10.00;48.94;99524.06;5054910;28;20023;-79
2024/02/02 10:30:23;;;;;;;;;;;;;;;10.18;47.88;99525.44;5056569;28;19991;-78
2024/02/02 10:33:00;;;;;;;;;;;;;;;9.95;47.76;99528.03;5074453;28;20312;-78
2024/02/02 10:35:35;;;;;;;;;;;;;;;9.95;48.64;99521.72;5057231;28;19970;-79
2024/02/02 10:38:24;;;;;;;;;;;;;;;10.02;48.75;99521.66;5057325;28;19974;-79
2024/02/02 10:40:49;;;;;;;;;;;;;;;10.04;49.20;99506.25;5056141;28;19916;-79
2024/02/02 10:43:41;;;;;;;;;;;;;;;10.18;47.29;99506.13;5056377;28;20653;-78
2024/02/02 10:46:33;;;;;;;;;;;;;;;10.09;47.39;99502.25;5019327;28;19922;-80
2024/02/02 10:49:07;;;;;;;;;;;;;;;9.96;48.75;99502.00;5033167;28;20015;-80
2024/02/02 10:51:39;;;;;;;;;;;;;;;10.04;47.55;99511.00;5042911;28;19917;-80
2024/02/02 10:54:20;;;;;;;;;;;;;;;9.85;47.65;99517.13;5056401;28;20290;-79
2024/02/02 10:56:57;;;;;;;;;;;;;;;9.95;48.79;99517.00;5074359;28;19921;-80
2024/02/02 10:59:49;;;;;;;;;;;;;;;9.93;47.68;99511.13;5056170;28;19917;-79
2024/02/02 11:02:24;;;;;;;;;;;;;;;9.82;47.76;99514.00;5074230;28;19967;-79
2024/02/02 11:05:08;;;;;;;;;;;;;;;9.77;47.46;99511.69;5048697;28;19916;-79
2024/02/02 11:07:38;;;;;;;;;;;;;;;9.72;46.87;99514.91;5051182;28;19916;-80
2024/02/02 11:10:06;;;;;;;;;;;;;;;9.75;48.30;99496.75;5073655;28;19919;-78
2024/02/02 11:12:50;;;;;;;;;;;;;;;9.83;47.29;99509.25;5073436;28;20015;-78
2024/02/02 11:15:25;;;;;;;;;;;;;;;9.84;46.34;99513.59;5073112;28;19920;-79
2024/02/02 11:17:50;;;;;;;;;;;;;;;9.81;46.15;99506.13;5073329;28;19920;-79
2024/02/02 11:20:22;;;;;;;;;;;;;;;9.77;46.11;99502.63;5054754;28;19969;-79
2024/02/02 11:22:55;;;;;;;;;;;;;;;9.90;46.53;99511.94;5073576;28;20357;-80
2024/02/02 11:25:32;;;;;;;;;;;;;;;9.85;45.94;99497.81;5073559;28;19924;-79
2024/02/02 11:28:03;;;;;;;;;;;;;;;9.86;45.99;99515.94;5073610;28;19928;-78
2024/02/02 11:30:49;;;;;;;;;;;;;;;9.65;45.19;99509.44;5046092;28;20359;-80
2024/02/02 11:33:26;;;;;;;;;;;;;;;9.58;45.25;99517.81;5054756;28;20344;-80
2024/02/02 11:35:52;;;;;;;;;;;;;;;9.65;45.10;99503.94;5072290;28;19993;-78
2024/02/02 11:38:36;;;;;;;;;;;;;;;9.68;43.95;99508.66;5051580;28;20352;-77
2024/02/02 11:41:02;;;;;;;;;;;;;;;9.54;43.94;99499.72;5055393;28;19960;-76
2024/02/02 11:43:29;;;;;;;;;;;;;;;9.55;43.51;99493.00;5073130;28;19916;-78
2024/02/02 11:45:55;;;;;;;;;;;;;;;9.83;44.04;99498.22;5044282;28;19932;-78
2024/02/02 11:48:25;;;;;;;;;;;;;;;10.03;42.77;99506.66;5070618;28;19916;-75
2024/02/02 11:50:51;;;;;;;;;;;;;;;10.15;41.60;99495.06;5055064;28;19916;-76
2024/02/02 11:53:33;;;;;;;;;;;;;;;10.27;42.19;99491.78;5055000;28;19920;-76
2024/02/02 11:56:10;;;;;;;;;;;;;;;10.40;41.58;99501.09;5072556;28;19916;-75
2024/02/02 11:58:36;;;;;;;;;;;;;;;10.48;40.57;99491.50;5055373;28;20011;-76
2024/02/02 12:01:16;;;;;;;;;;;;;;;10.28;40.73;99484.28;5054779;28;20319;-76
2024/02/02 12:03:54;;;;;;;;;;;;;;;10.11;40.51;99492.38;5054868;28;20382;-78
2024/02/02 12:06:20;;;;;;;;;;;;;;;9.97;41.35;99491.75;5072880;28;20238;-78
2024/02/02 12:09:01;;;;;;;;;;;;;;;9.86;41.11;99493.84;5054653;28;19950;-77
2024/02/02 12:11:31;;;;;;;;;;;;;;;9.93;41.04;99491.81;5046120;28;19985;-80
2024/02/02 12:13:57;;;;;;;;;;;;;;;10.06;40.65;99509.41;5073085;28;19987;-80
2024/02/02 12:16:23;;;;;;;;;;;;;;;10.13;40.32;99491.94;5055009;28;19922;-80
2024/02/02 12:18:48;;;;;;;;;;;;;;;10.08;40.69;99493.19;5054746;28;19916;-81
2024/02/02 12:21:15;;;;;;;;;;;;;;;9.96;40.18;99502.00;5054227;28;19923;-80
2024/02/02 12:23:46;;;;;;;;;;;;;;;9.85;40.76;99508.84;5054759;28;20408;-78
2024/02/02 12:26:12;;;;;;;;;;;;;;;9.89;41.22;99507.59;5054036;28;20348;-79
2024/02/02 12:28:37;;;;;;;;;;;;;;;10.05;41.10;99518.09;5071441;28;20016;-81
2024/02/02 12:31:03;;;;;;;;;;;;;;;10.07;40.68;99510.94;5070039;28;20309;-79
2024/02/02 12:33:28;;;;;;;;;;;;;;;10.11;40.97;99508.94;5053225;28;19920;-80
2024/02/02 12:35:54;;;;;;;;;;;;;;;10.04;41.32;99499.94;5071073;28;19978;-80
2024/02/02 12:38:20;;;;;;;;;;;;;;;10.00;41.12;99499.22;5053178;28;19916;-79
2024/02/02 12:40:45;;;;;;;;;;;;;;;9.85;40.66;99511.59;5071472;28;19920;-78
2024/02/02 12:43:10;;;;;;;;;;;;;;;9.71;40.82;99512.53;5058491;28;20352;-79
2024/02/02 12:45:37;;;;;;;;;;;;;;;9.79;41.93;99511.28;5057682;28;20037;-79
2024/02/02 12:48:03;;;;;;;;;;;;;;;9.62;40.71;99517.78;5066433;28;19916;-80
2024/02/02 12:50:28;;;;;;;;;;;;;;;9.66;42.60;99521.28;5054273;28;20408;-80
2024/02/02 12:52:54;;;;;;;;;;;;;;;9.54;44.00;99519.03;5071909;28;19921;-79
2024/02/02 12:55:20;;;;;;;;;;;;;;;9.30;43.55;99518.06;5054322;28;20235;-79
2024/02/02 12:57:46;;;;;;;;;;;;;;;9.05;45.28;99520.25;5071748;28;19927;-80